Kinsley, Kansas
Current Conditions -  °F | °C
As of 7:52 PM on Friday 24 Oct 2014 (Local Time) from KDDC Reporting Station
Clear Clear  
Wind Chill: 22°   Ceiling: Unl
Heat Index: 22°   Visibility: 10mi
Dew Point: 11°   Wind: 10mph
Humidity: 49%   Direction: 160°SSE
Pressure: 30.04"   Gusts: NA
Location:  37.92°N, 99.41°W
Report Text: KDDC 250052Z AUTO 16009KT 10SM CLR 22/11 A3004 RMK AO2 SLP157 T02170106
Loading
Personal Weather Stations






























Interactive Weather Map
Tropical Storm Tracking
New forecast layout! Learn more

10-Day Weather Forecast

Advertisements
Track Severe Weather on mobile